createdAt,value
2022-08-12T00:00:45.985Z,101634.72
2022-08-12T00:04:17.567Z,101631.56
2022-08-12T00:07:15.198Z,101628.75
2022-08-12T00:10:16.861Z,101629.31
2022-08-12T00:13:13.908Z,101626.16
2022-08-12T00:16:11.828Z,101630.25
2022-08-12T00:19:21.689Z,101631.97
2022-08-12T00:22:20.130Z,101622.59
2022-08-12T00:25:20.967Z,101621.31
2022-08-12T00:28:38.373Z,101626.75
2022-08-12T00:31:36.368Z,101628.31
2022-08-12T00:34:36.743Z,101627.88
2022-08-12T00:37:34.024Z,101630.56
2022-08-12T00:40:32.394Z,101631.31
2022-08-12T00:43:14.741Z,101632.69
2022-08-12T00:46:11.064Z,101637.44
2022-08-12T00:48:51.993Z,101626.34
2022-08-12T00:51:47.458Z,101626.06
2022-08-12T00:54:57.820Z,101624.56
2022-08-12T00:57:38.511Z,101619.91
2022-08-12T01:00:21.365Z,101626.19
2022-08-12T01:03:01.260Z,101618.66
2022-08-12T01:06:06.350Z,101617.16
2022-08-12T01:09:06.132Z,101626.59
2022-08-12T01:11:46.331Z,101617.38
2022-08-12T01:14:40.820Z,101620.63
2022-08-12T01:17:19.715Z,101622.84
2022-08-12T01:20:01.528Z,101621.19
2022-08-12T01:22:55.412Z,101621.72
2022-08-12T01:25:55.658Z,101621.72
2022-08-12T01:28:39.428Z,101614.38
2022-08-12T01:31:21.634Z,101621.09
2022-08-12T01:34:35.674Z,101611.53
2022-08-12T01:37:08.889Z,101611.38
2022-08-12T01:40:34.147Z,101618.78
2022-08-12T01:42:53.047Z,101607.88
2022-08-12T01:46:04.496Z,101610.09
2022-08-12T01:48:54.525Z,101616.84
2022-08-12T01:52:21.066Z,101609.78
2022-08-12T01:54:58.655Z,101619.53
2022-08-12T01:57:59.700Z,101621.91
2022-08-12T02:01:27.086Z,101614.22
2022-08-12T02:04:34.770Z,101611.53
2022-08-12T02:08:14.753Z,101616.25
2022-08-12T02:11:21.465Z,101607.88
2022-08-12T02:14:26.006Z,101612.91
2022-08-12T02:17:55.092Z,101611.56
2022-08-12T02:20:35.114Z,101610.25
2022-08-12T02:23:32.329Z,101608.94
2022-08-12T02:26:15.835Z,101607.56
2022-08-12T02:28:56.460Z,101602.56
2022-08-12T02:31:38.288Z,101599.06
2022-08-12T02:34:19.796Z,101612.84
2022-08-12T02:37:02.667Z,101611.31
2022-08-12T02:39:48.658Z,101611.00
2022-08-12T02:42:30.338Z,101607.31
2022-08-12T02:45:11.539Z,101610.00
2022-08-12T02:47:59.130Z,101611.84
2022-08-12T02:50:46.714Z,101617.38
2022-08-12T02:53:27.920Z,101606.81
2022-08-12T02:56:09.899Z,101606.28
2022-08-12T02:58:51.487Z,101608.28
2022-08-12T03:01:33.897Z,101607.78
2022-08-12T03:04:21.464Z,101603.59
2022-08-12T03:07:07.291Z,101597.91
2022-08-12T03:10:04.789Z,101595.56
2022-08-12T03:12:48.910Z,101596.88
2022-08-12T03:15:31.823Z,101603.59
2022-08-12T03:18:45.965Z,101606.63
2022-08-12T03:21:52.889Z,101597.06
2022-08-12T03:24:45.547Z,101599.25
2022-08-12T03:27:27.991Z,101597.91
2022-08-12T03:30:09.296Z,101599.91
2022-08-12T03:32:53.048Z,101597.75
2022-08-12T03:35:40.022Z,101593.56
2022-08-12T03:38:37.191Z,101601.94
2022-08-12T03:41:35.890Z,101594.19
2022-08-12T03:44:52.229Z,101589.16
2022-08-12T03:47:58.069Z,101592.34
2022-08-12T03:50:58.065Z,101588.16
2022-08-12T03:53:56.397Z,101588.69
2022-08-12T03:56:53.871Z,101581.81
2022-08-12T03:59:54.192Z,101588.31
2022-08-12T04:02:35.508Z,101589.47
2022-08-12T04:05:21.539Z,101595.00
2022-08-12T04:08:10.695Z,101589.81
2022-08-12T04:11:09.390Z,101588.13
2022-08-12T04:13:51.544Z,101590.47
2022-08-12T04:16:31.855Z,101596.44
2022-08-12T04:19:13.861Z,101590.78
2022-08-12T04:22:01.072Z,101592.94
2022-08-12T04:24:44.139Z,101590.09
2022-08-12T04:27:31.282Z,101586.59
2022-08-12T04:30:16.871Z,101582.06
2022-08-12T04:33:12.230Z,101587.09
2022-08-12T04:35:56.399Z,101586.59
2022-08-12T04:38:37.114Z,101591.09
2022-08-12T04:41:19.030Z,101589.09
2022-08-12T04:44:02.675Z,101585.59
2022-08-12T04:46:43.419Z,101583.03
2022-08-12T04:49:24.197Z,101590.09
2022-08-12T04:52:05.397Z,101591.44
2022-08-12T04:54:59.525Z,101592.78
2022-08-12T04:57:40.244Z,101593.47
2022-08-12T05:00:23.214Z,101587.94
2022-08-12T05:13:31.231Z,101586.97
2022-08-12T05:16:32.591Z,101591.00
2022-08-12T05:19:22.499Z,101594.84
2022-08-12T05:22:03.689Z,101590.81
2022-08-12T05:24:44.099Z,101601.75
2022-08-12T05:27:24.986Z,101589.50
2022-08-12T05:30:09.242Z,101594.19
2022-08-12T05:32:49.299Z,101597.91
2022-08-12T05:35:27.749Z,101597.91
2022-08-12T05:38:38.495Z,101601.25
2022-08-12T05:41:22.178Z,101604.09
2022-08-12T05:44:25.724Z,101592.38
2022-08-12T05:47:07.109Z,101603.78
2022-08-12T05:49:48.808Z,101604.47
2022-08-12T05:52:28.108Z,101604.59
2022-08-12T05:55:08.605Z,101608.94
2022-08-12T05:57:55.254Z,101609.41
2022-08-12T06:00:36.352Z,101604.53
2022-08-12T06:03:17.625Z,101610.81
2022-08-12T06:06:00.525Z,101616.13
2022-08-12T06:08:39.525Z,101611.38
2022-08-12T06:11:33.366Z,101620.53
2022-08-12T06:14:13.968Z,101623.31
2022-08-12T06:17:38.961Z,101618.00
2022-08-12T06:20:30.200Z,101627.13
2022-08-12T06:23:16.215Z,101630.72
2022-08-12T06:25:57.463Z,101624.25
2022-08-12T06:28:36.280Z,101630.09
2022-08-12T06:31:26.262Z,101626.69
2022-08-12T06:35:26.610Z,101625.31
2022-08-12T06:37:07.683Z,101632.00
2022-08-12T06:39:48.206Z,101637.97
2022-08-12T06:42:46.228Z,101634.03
2022-08-12T06:45:49.542Z,101640.91
2022-08-12T06:48:49.972Z,101646.03
2022-08-12T06:51:32.822Z,101645.97
2022-08-12T06:54:14.530Z,101642.75
2022-08-12T06:57:57.100Z,101642.50
2022-08-12T07:00:12.229Z,101649.94
2022-08-12T07:02:55.419Z,101648.22
2022-08-12T07:05:39.004Z,101651.44
2022-08-12T07:08:17.808Z,101639.94
2022-08-12T07:11:17.816Z,101653.41
2022-08-12T07:14:13.129Z,101661.41
2022-08-12T07:16:56.575Z,101657.59
2022-08-12T07:19:40.390Z,101655.75
2022-08-12T07:22:23.124Z,101665.38
2022-08-12T07:25:19.936Z,101666.03
2022-08-12T07:28:03.619Z,101659.94
2022-08-12T07:30:59.302Z,101665.72
2022-08-12T07:33:41.191Z,101660.56
2022-08-12T07:36:22.570Z,101661.19
2022-08-12T07:39:03.456Z,101664.53
2022-08-12T07:41:43.390Z,101668.41
2022-08-12T07:44:25.759Z,101667.25
2022-08-12T07:47:06.247Z,101666.22
2022-08-12T07:50:05.404Z,101673.03
2022-08-12T07:52:47.111Z,101677.06
2022-08-12T07:55:30.659Z,101674.50
2022-08-12T07:58:09.445Z,101668.88
2022-08-12T08:00:49.939Z,101675.06
2022-08-12T08:04:13.014Z,101671.06
2022-08-12T08:07:00.511Z,101675.16
2022-08-12T08:09:41.709Z,101672.41
2022-08-12T08:12:40.532Z,101673.03
2022-08-12T08:15:33.690Z,101669.00
2022-08-12T08:18:34.560Z,101670.16
2022-08-12T08:21:15.668Z,101667.22
2022-08-12T08:24:13.924Z,101663.66
2022-08-12T08:27:08.507Z,101667.06
2022-08-12T08:29:49.009Z,101664.31
2022-08-12T08:32:28.662Z,101664.22
2022-08-12T08:35:13.117Z,101660.03
2022-08-12T08:37:55.395Z,101650.84
2022-08-12T08:41:01.311Z,101654.03
2022-08-12T08:43:44.171Z,101660.25
2022-08-12T08:46:25.475Z,101656.88
2022-08-12T08:49:23.106Z,101658.19
2022-08-12T08:52:02.817Z,101655.94
2022-08-12T08:54:42.461Z,101657.25
2022-08-12T08:57:23.373Z,101660.13
2022-08-12T09:00:22.712Z,101659.59
2022-08-12T09:03:04.352Z,101650.50
2022-08-12T09:06:05.421Z,101642.97
2022-08-12T09:08:46.306Z,101641.88
2022-08-12T09:17:56.913Z,101644.38
2022-08-12T09:20:38.667Z,101633.69
2022-08-12T09:23:59.743Z,101639.75
2022-08-12T09:26:22.680Z,101638.09
2022-08-12T09:29:12.197Z,101636.38
2022-08-12T09:32:03.473Z,101648.41
2022-08-12T09:34:50.904Z,101628.19
2022-08-12T09:37:57.952Z,101626.53
2022-08-12T09:40:57.581Z,101632.00
2022-08-12T09:43:54.040Z,101620.50
2022-08-12T09:46:42.784Z,101620.09
2022-08-12T09:49:24.005Z,101621.44
2022-08-12T09:52:16.723Z,101613.47
2022-08-12T09:55:02.892Z,101611.72
2022-08-12T09:58:45.630Z,101606.09
2022-08-12T10:00:53.070Z,101595.94
2022-08-12T10:03:36.814Z,101599.25
2022-08-12T10:06:54.169Z,101595.94
2022-08-12T10:09:57.073Z,101589.63
2022-08-12T10:13:06.647Z,101585.91
2022-08-12T10:16:00.594Z,101583.47
2022-08-12T10:18:51.933Z,101580.84
2022-08-12T10:21:37.819Z,101582.69
2022-08-12T10:24:28.501Z,101575.00
2022-08-12T10:27:26.986Z,101567.03
2022-08-12T10:30:44.139Z,101560.31
2022-08-12T10:33:31.411Z,101558.97
2022-08-12T10:36:14.432Z,101555.41
2022-08-12T10:38:56.484Z,101564.38
2022-08-12T10:41:57.918Z,101552.28
2022-08-12T10:44:39.221Z,101551.22
2022-08-12T10:47:26.028Z,101552.16
2022-08-12T10:51:01.762Z,101552.75
2022-08-12T10:53:46.740Z,101545.56
2022-08-12T10:56:49.750Z,101540.19
2022-08-12T10:59:58.129Z,101550.41
2022-08-12T11:04:26.123Z,101542.56
2022-08-12T11:07:09.189Z,101544.78
2022-08-12T11:08:42.970Z,101543.41
2022-08-12T11:12:34.936Z,101537.50
2022-08-12T11:14:49.137Z,101533.06
2022-08-12T11:17:52.565Z,101528.13
2022-08-12T11:20:32.966Z,101524.94
2022-08-12T11:23:36.175Z,101523.13
2022-08-12T11:26:15.812Z,101519.06
2022-08-12T11:29:26.483Z,101527.25
2022-08-12T11:32:06.930Z,101523.50
2022-08-12T11:34:53.637Z,101522.81
2022-08-12T11:37:57.764Z,101519.69
2022-08-12T11:40:35.874Z,101516.72
2022-08-12T11:43:19.289Z,101529.28
2022-08-12T11:46:11.965Z,101528.88
2022-08-12T11:49:00.043Z,101522.47
2022-08-12T11:51:41.279Z,101510.97
2022-08-12T11:54:23.989Z,101500.09
2022-08-12T11:58:07.411Z,101501.63
2022-08-12T12:03:06.873Z,101489.97
2022-08-12T12:05:46.712Z,101493.63
2022-08-12T12:08:39.054Z,101489.19
2022-08-12T12:11:22.266Z,101494.91
2022-08-12T12:14:07.370Z,101496.28
2022-08-12T12:16:50.149Z,101482.81
2022-08-12T12:19:39.702Z,101482.78
2022-08-12T12:22:30.707Z,101472.06
2022-08-12T12:25:13.705Z,101478.28
2022-08-12T12:28:05.234Z,101486.38
2022-08-12T12:30:54.641Z,101480.69
2022-08-12T12:33:57.214Z,101478.44
2022-08-12T12:36:37.595Z,101477.16
2022-08-12T12:39:17.603Z,101471.28
2022-08-12T12:42:55.871Z,101472.38
2022-08-12T12:45:20.465Z,101472.69
2022-08-12T12:48:08.148Z,101466.63
2022-08-12T12:51:09.648Z,101467.53
2022-08-12T12:54:08.036Z,101464.94
2022-08-12T12:56:54.346Z,101455.16
2022-08-12T12:59:56.133Z,101452.56
2022-08-12T13:02:40.230Z,101447.66
2022-08-12T13:05:28.047Z,101449.16
2022-08-12T13:08:21.714Z,101453.63
2022-08-12T13:11:09.080Z,101472.75
2022-08-12T13:14:10.292Z,101460.28
2022-08-12T13:16:50.564Z,101464.56
2022-08-12T13:19:43.289Z,101460.78
2022-08-12T13:22:29.733Z,101455.63
2022-08-12T13:25:09.157Z,101462.28
2022-08-12T13:28:00.837Z,101448.13
2022-08-12T13:30:48.364Z,101441.69
2022-08-12T13:34:32.984Z,101445.56
2022-08-12T13:36:35.291Z,101445.88
2022-08-12T13:39:16.126Z,101447.22
2022-08-12T13:41:56.615Z,101438.41
2022-08-12T13:44:38.055Z,101443.19
2022-08-12T13:47:20.750Z,101434.22
2022-08-12T13:50:00.863Z,101443.81
2022-08-12T13:52:48.103Z,101432.72
2022-08-12T13:55:30.946Z,101424.59
2022-08-12T13:58:12.624Z,101421.81
2022-08-12T14:00:55.670Z,101419.25
2022-08-12T14:03:50.574Z,101417.25
2022-08-12T14:06:33.858Z,101417.13
2022-08-12T14:09:17.241Z,101411.81
2022-08-12T14:11:59.119Z,101418.91
2022-08-12T14:14:39.075Z,101413.72
2022-08-12T14:17:21.443Z,101412.06
2022-08-12T14:20:16.227Z,101411.78
2022-08-12T14:22:59.882Z,101403.28
2022-08-12T14:26:01.685Z,101399.16
2022-08-12T14:28:57.536Z,101411.91
2022-08-12T14:31:44.148Z,101406.44
2022-08-12T14:34:28.355Z,101412.03
2022-08-12T14:37:13.089Z,101409.69
2022-08-12T14:40:18.162Z,101406.53
2022-08-12T14:42:59.165Z,101402.59
2022-08-12T14:45:47.112Z,101412.09
2022-08-12T14:48:29.690Z,101408.53
2022-08-12T14:52:54.643Z,101397.38
2022-08-12T14:57:23.458Z,101392.06
2022-08-12T15:00:24.567Z,101397.84
2022-08-12T15:03:08.953Z,101392.34
2022-08-12T15:06:06.131Z,101383.75
2022-08-12T15:08:46.902Z,101383.81
2022-08-12T15:11:54.810Z,101397.44
2022-08-12T15:14:30.288Z,101394.06
2022-08-12T15:17:10.701Z,101401.75
2022-08-12T15:20:37.335Z,101391.72
2022-08-12T15:23:21.349Z,101382.13
2022-08-12T15:26:03.601Z,101381.84
2022-08-12T15:28:54.051Z,101391.06
2022-08-12T15:32:02.056Z,101386.88
2022-08-12T15:34:38.753Z,101387.19
2022-08-12T15:37:18.363Z,101385.53
2022-08-12T15:40:01.167Z,101387.59
2022-08-12T15:42:50.810Z,101379.38
2022-08-12T15:45:32.405Z,101381.41
2022-08-12T15:48:20.256Z,101384.03
2022-08-12T15:51:01.116Z,101381.16
2022-08-12T15:53:59.008Z,101383.06
2022-08-12T15:56:38.841Z,101381.91
2022-08-12T15:59:20.325Z,101386.63
2022-08-12T16:02:19.731Z,101386.81
2022-08-12T16:06:16.869Z,101378.63
2022-08-12T16:08:27.462Z,101381.34
2022-08-12T16:11:15.448Z,101364.91
2022-08-12T16:14:09.582Z,101369.16
2022-08-12T16:16:53.264Z,101357.31
2022-08-12T16:20:03.860Z,101369.16
2022-08-12T16:22:36.065Z,101373.81
2022-08-12T16:25:18.204Z,101367.22
2022-08-12T16:28:04.894Z,101365.34
2022-08-12T16:30:50.111Z,101358.19
2022-08-12T16:33:59.158Z,101366.88
2022-08-12T16:36:42.775Z,101350.91
2022-08-12T16:39:23.024Z,101356.06
2022-08-12T16:42:15.488Z,101351.44
2022-08-12T16:45:02.287Z,101347.00
2022-08-12T16:47:58.573Z,101356.22
2022-08-12T16:50:49.922Z,101353.13
2022-08-12T16:53:44.192Z,101351.31
2022-08-12T16:56:29.031Z,101342.84
2022-08-12T16:59:16.131Z,101338.63
2022-08-12T17:02:06.251Z,101335.81
2022-08-12T17:05:12.549Z,101338.34
2022-08-12T17:08:08.846Z,101334.09
2022-08-12T17:10:53.349Z,101338.56
2022-08-12T17:13:53.461Z,101339.63
2022-08-12T17:16:37.571Z,101335.00
2022-08-12T17:19:45.687Z,101336.53
2022-08-12T17:22:24.140Z,101337.50
2022-08-12T17:25:34.309Z,101341.75
2022-08-12T17:28:20.929Z,101341.19
2022-08-12T17:32:00.163Z,101342.38
2022-08-12T17:35:07.030Z,101334.44
2022-08-12T17:37:54.625Z,101345.97
2022-08-12T17:40:51.287Z,101342.78
2022-08-12T17:43:56.441Z,101340.66
2022-08-12T17:46:34.551Z,101342.25
2022-08-12T17:50:03.030Z,101349.88
2022-08-12T17:55:40.750Z,101346.91
2022-08-12T17:58:23.792Z,101352.84
2022-08-12T18:02:30.826Z,101350.66
2022-08-12T18:05:50.153Z,101353.09
2022-08-12T18:08:54.530Z,101355.19
2022-08-12T18:12:05.609Z,101358.38
2022-08-12T18:14:47.495Z,101361.28
2022-08-12T18:17:31.810Z,101368.03
2022-08-12T18:20:18.341Z,101364.72
2022-08-12T18:23:08.807Z,101371.75
2022-08-12T18:26:34.534Z,101368.00
2022-08-12T18:29:42.223Z,101369.56
2022-08-12T18:32:43.874Z,101368.50
2022-08-12T18:35:53.156Z,101366.78
2022-08-12T18:38:40.403Z,101355.88
2022-08-12T18:41:40.681Z,101349.75
2022-08-12T18:44:57.786Z,101356.38
2022-08-12T18:47:50.141Z,101361.47
2022-08-12T18:51:04.642Z,101360.53
2022-08-12T18:54:25.666Z,101355.22
2022-08-12T18:57:16.476Z,101356.75
2022-08-12T19:00:23.603Z,101372.88
2022-08-12T19:03:38.826Z,101376.69
2022-08-12T19:06:55.257Z,101377.59
2022-08-12T19:10:04.292Z,101376.44
2022-08-12T19:13:03.264Z,101368.75
2022-08-12T19:15:48.361Z,101372.09
2022-08-12T19:18:31.432Z,101386.53
2022-08-12T19:21:20.483Z,101378.03
2022-08-12T19:24:19.037Z,101388.69
2022-08-12T19:38:03.163Z,101391.69
2022-08-12T19:41:14.180Z,101392.13
2022-08-12T19:44:26.560Z,101396.25
2022-08-12T19:47:11.900Z,101387.13
2022-08-12T19:50:11.384Z,101387.13
2022-08-12T19:53:13.325Z,101389.19
2022-08-12T19:56:19.910Z,101396.28
2022-08-12T19:59:24.456Z,101399.81
2022-08-12T20:02:41.404Z,101402.50
2022-08-12T20:06:03.690Z,101405.84
2022-08-12T20:08:34.021Z,101399.59
2022-08-12T20:12:11.143Z,101409.53
2022-08-12T20:14:22.243Z,101408.72
2022-08-12T20:17:12.063Z,101409.50
2022-08-12T20:20:17.755Z,101411.13
2022-08-12T20:23:50.726Z,101411.13
2022-08-12T20:26:54.470Z,101411.69
2022-08-12T20:29:55.839Z,101411.69
2022-08-12T20:32:47.869Z,101407.09
2022-08-12T20:36:06.967Z,101404.34
2022-08-12T20:38:45.918Z,101418.66
2022-08-12T20:41:45.466Z,101424.47
2022-08-12T20:44:36.327Z,101416.31
2022-08-12T20:47:42.203Z,101414.22
2022-08-12T20:50:31.107Z,101407.56
2022-08-12T20:53:53.823Z,101423.91
2022-08-12T20:56:56.100Z,101413.69
2022-08-12T21:00:05.874Z,101413.66
2022-08-12T21:03:24.155Z,101417.13
2022-08-12T21:06:22.842Z,101414.59
2022-08-12T21:09:05.968Z,101420.59
2022-08-12T21:11:47.518Z,101423.84
2022-08-12T21:14:52.844Z,101421.56
2022-08-12T21:18:00.932Z,101419.66
2022-08-12T21:20:45.293Z,101423.16
2022-08-12T21:23:30.860Z,101424.94
2022-08-12T21:26:26.331Z,101425.34
2022-08-12T21:29:18.241Z,101424.06
2022-08-12T21:32:39.614Z,101428.19
2022-08-12T21:35:39.896Z,101426.88
2022-08-12T21:38:34.897Z,101428.94
2022-08-12T21:41:20.135Z,101430.56
2022-08-12T21:45:44.324Z,101427.59
2022-08-12T21:58:20.862Z,101432.03
2022-08-12T22:01:10.271Z,101433.00
2022-08-12T22:04:40.011Z,101433.38
2022-08-12T22:07:26.748Z,101426.88
2022-08-12T22:10:12.354Z,101432.66
2022-08-12T22:12:58.476Z,101428.88
2022-08-12T22:15:45.696Z,101434.81
2022-08-12T22:19:04.506Z,101431.66
2022-08-12T22:21:52.128Z,101426.84
2022-08-12T22:24:37.328Z,101430.94
2022-08-12T22:27:32.267Z,101432.16
2022-08-12T22:30:31.977Z,101435.41
2022-08-12T22:33:15.788Z,101432.25
2022-08-12T22:35:59.742Z,101426.59
2022-08-12T22:38:39.680Z,101422.44
2022-08-12T22:41:42.516Z,101424.63
2022-08-12T22:44:52.598Z,101417.78
2022-08-12T22:47:54.819Z,101425.56
2022-08-12T22:50:35.550Z,101425.09
2022-08-12T22:53:16.225Z,101432.53
2022-08-12T22:56:05.465Z,101422.13
2022-08-12T22:58:46.113Z,101418.31
2022-08-12T23:01:52.047Z,101424.06
2022-08-12T23:04:28.509Z,101417.41
2022-08-12T23:07:07.961Z,101423.16
2022-08-12T23:10:02.040Z,101419.97
2022-08-12T23:13:12.524Z,101417.66
2022-08-12T23:15:59.557Z,101418.03
2022-08-12T23:18:41.164Z,101414.03
2022-08-12T23:21:23.659Z,101416.28
2022-08-12T23:24:10.122Z,101422.19
2022-08-12T23:27:08.517Z,101420.69
2022-08-12T23:30:17.638Z,101411.50
2022-08-12T23:32:54.691Z,101416.63
2022-08-12T23:35:54.116Z,101410.94
2022-08-12T23:38:43.247Z,101415.00
2022-08-12T23:41:25.413Z,101410.38
2022-08-12T23:44:08.999Z,101410.38
2022-08-12T23:46:54.493Z,101416.09
2022-08-12T23:49:58.103Z,101418.16
2022-08-12T23:52:37.457Z,101414.50
2022-08-12T23:55:24.955Z,101412.16
2022-08-12T23:58:20.827Z,101408.50
